sensor_id;sensor_type;location;lat;lon;timestamp;P1;durP1;ratioP1;P2;durP2;ratioP2
5499;SDS011;2772;42.700;23.304;2022-11-30T00:00:52;15.67;;;8.20;;
5499;SDS011;2772;42.700;23.304;2022-11-30T00:03:19;10.50;;;7.23;;
5499;SDS011;2772;42.700;23.304;2022-11-30T00:05:46;12.23;;;7.47;;
5499;SDS011;2772;42.700;23.304;2022-11-30T00:08:13;11.37;;;7.40;;
5499;SDS011;2772;42.700;23.304;2022-11-30T00:10:40;10.20;;;7.23;;
5499;SDS011;2772;42.700;23.304;2022-11-30T00:13:08;5.20;;;4.20;;
5499;SDS011;2772;42.700;23.304;2022-11-30T00:15:35;13.10;;;7.40;;
5499;SDS011;2772;42.700;23.304;2022-11-30T00:18:04;12.10;;;6.33;;
5499;SDS011;2772;42.700;23.304;2022-11-30T00:20:31;6.97;;;4.90;;
5499;SDS011;2772;42.700;23.304;2022-11-30T00:22:58;4.27;;;3.87;;
5499;SDS011;2772;42.700;23.304;2022-11-30T00:25:24;9.70;;;7.00;;
5499;SDS011;2772;42.700;23.304;2022-11-30T00:27:52;5.10;;;2.70;;
5499;SDS011;2772;42.700;23.304;2022-11-30T00:30:19;4.00;;;3.60;;
5499;SDS011;2772;42.700;23.304;2022-11-30T00:32:45;2.80;;;2.60;;
5499;SDS011;2772;42.700;23.304;2022-11-30T00:35:14;1.60;;;1.50;;
5499;SDS011;2772;42.700;23.304;2022-11-30T00:37:42;1.80;;;1.70;;
5499;SDS011;2772;42.700;23.304;2022-11-30T00:40:09;1.93;;;1.83;;
5499;SDS011;2772;42.700;23.304;2022-11-30T00:42:36;1.70;;;1.60;;
5499;SDS011;2772;42.700;23.304;2022-11-30T00:45:03;1.23;;;1.13;;
5499;SDS011;2772;42.700;23.304;2022-11-30T00:47:30;1.50;;;1.40;;
5499;SDS011;2772;42.700;23.304;2022-11-30T00:49:57;1.00;;;0.90;;
5499;SDS011;2772;42.700;23.304;2022-11-30T00:52:25;1.93;;;1.00;;
5499;SDS011;2772;42.700;23.304;2022-11-30T00:54:53;1.23;;;1.13;;
5499;SDS011;2772;42.700;23.304;2022-11-30T00:57:20;1.23;;;0.87;;
5499;SDS011;2772;42.700;23.304;2022-11-30T00:59:47;0.90;;;0.70;;
5499;SDS011;2772;42.700;23.304;2022-11-30T01:02:13;0.97;;;0.87;;
5499;SDS011;2772;42.700;23.304;2022-11-30T01:04:40;1.10;;;1.00;;
5499;SDS011;2772;42.700;23.304;2022-11-30T01:07:07;1.00;;;0.90;;
5499;SDS011;2772;42.700;23.304;2022-11-30T01:09:35;1.13;;;1.03;;
5499;SDS011;2772;42.700;23.304;2022-11-30T01:12:02;0.90;;;0.83;;
5499;SDS011;2772;42.700;23.304;2022-11-30T01:14:29;1.20;;;1.00;;
5499;SDS011;2772;42.700;23.304;2022-11-30T01:16:56;2.63;;;1.17;;
5499;SDS011;2772;42.700;23.304;2022-11-30T01:19:22;1.00;;;0.87;;
5499;SDS011;2772;42.700;23.304;2022-11-30T01:21:49;1.00;;;0.77;;
5499;SDS011;2772;42.700;23.304;2022-11-30T01:24:16;2.07;;;0.97;;
5499;SDS011;2772;42.700;23.304;2022-11-30T01:26:44;0.90;;;0.90;;
5499;SDS011;2772;42.700;23.304;2022-11-30T01:29:11;1.00;;;0.77;;
5499;SDS011;2772;42.700;23.304;2022-11-30T01:31:37;1.10;;;1.00;;
5499;SDS011;2772;42.700;23.304;2022-11-30T01:34:04;0.93;;;0.83;;
5499;SDS011;2772;42.700;23.304;2022-11-30T01:36:31;0.90;;;0.70;;
5499;SDS011;2772;42.700;23.304;2022-11-30T01:38:58;1.10;;;0.87;;
5499;SDS011;2772;42.700;23.304;2022-11-30T01:41:25;1.13;;;1.03;;
5499;SDS011;2772;42.700;23.304;2022-11-30T01:43:55;1.00;;;0.90;;
5499;SDS011;2772;42.700;23.304;2022-11-30T01:46:28;0.80;;;0.80;;
5499;SDS011;2772;42.700;23.304;2022-11-30T01:49:00;1.50;;;1.40;;
5499;SDS011;2772;42.700;23.304;2022-11-30T01:51:38;2.87;;;1.20;;
5499;SDS011;2772;42.700;23.304;2022-11-30T01:54:09;1.60;;;1.23;;
5499;SDS011;2772;42.700;23.304;2022-11-30T01:56:38;1.60;;;1.50;;
5499;SDS011;2772;42.700;23.304;2022-11-30T01:59:09;1.40;;;1.30;;
5499;SDS011;2772;42.700;23.304;2022-11-30T02:01:37;1.80;;;1.70;;
5499;SDS011;2772;42.700;23.304;2022-11-30T02:04:05;1.60;;;1.50;;
5499;SDS011;2772;42.700;23.304;2022-11-30T02:06:36;2.00;;;1.80;;
5499;SDS011;2772;42.700;23.304;2022-11-30T02:09:03;1.70;;;1.60;;
5499;SDS011;2772;42.700;23.304;2022-11-30T02:11:30;1.40;;;1.30;;
5499;SDS011;2772;42.700;23.304;2022-11-30T02:13:58;1.80;;;1.70;;
5499;SDS011;2772;42.700;23.304;2022-11-30T02:16:37;3.77;;;1.80;;
5499;SDS011;2772;42.700;23.304;2022-11-30T02:19:16;1.53;;;1.43;;
5499;SDS011;2772;42.700;23.304;2022-11-30T02:22:02;1.20;;;1.10;;
5499;SDS011;2772;42.700;23.304;2022-11-30T02:24:42;2.60;;;1.27;;
5499;SDS011;2772;42.700;23.304;2022-11-30T02:27:26;2.50;;;1.20;;
5499;SDS011;2772;42.700;23.304;2022-11-30T02:30:03;1.43;;;1.33;;
5499;SDS011;2772;42.700;23.304;2022-11-30T02:32:34;1.50;;;1.40;;
5499;SDS011;2772;42.700;23.304;2022-11-30T02:35:05;2.37;;;1.50;;
5499;SDS011;2772;42.700;23.304;2022-11-30T02:37:34;3.17;;;1.60;;
5499;SDS011;2772;42.700;23.304;2022-11-30T02:40:06;2.23;;;2.13;;
5499;SDS011;2772;42.700;23.304;2022-11-30T02:42:34;2.43;;;2.33;;
5499;SDS011;2772;42.700;23.304;2022-11-30T02:45:00;5.47;;;4.87;;
5499;SDS011;2772;42.700;23.304;2022-11-30T02:47:33;4.50;;;4.10;;
5499;SDS011;2772;42.700;23.304;2022-11-30T02:50:06;7.23;;;5.43;;
5499;SDS011;2772;42.700;23.304;2022-11-30T02:52:36;8.43;;;6.20;;
5499;SDS011;2772;42.700;23.304;2022-11-30T02:55:04;6.63;;;5.60;;
5499;SDS011;2772;42.700;23.304;2022-11-30T02:57:33;4.40;;;4.03;;
5499;SDS011;2772;42.700;23.304;2022-11-30T03:00:01;4.30;;;4.00;;
5499;SDS011;2772;42.700;23.304;2022-11-30T03:02:32;3.90;;;3.57;;
5499;SDS011;2772;42.700;23.304;2022-11-30T03:04:58;4.13;;;3.87;;
5499;SDS011;2772;42.700;23.304;2022-11-30T03:07:25;3.97;;;3.73;;
5499;SDS011;2772;42.700;23.304;2022-11-30T03:09:52;10.87;;;4.33;;
5499;SDS011;2772;42.700;23.304;2022-11-30T03:12:19;5.13;;;4.70;;
5499;SDS011;2772;42.700;23.304;2022-11-30T03:14:45;3.53;;;3.33;;
5499;SDS011;2772;42.700;23.304;2022-11-30T03:17:14;5.50;;;3.87;;
5499;SDS011;2772;42.700;23.304;2022-11-30T03:19:40;3.50;;;3.20;;
5499;SDS011;2772;42.700;23.304;2022-11-30T03:22:07;3.70;;;3.50;;
5499;SDS011;2772;42.700;23.304;2022-11-30T03:24:34;3.27;;;3.17;;
5499;SDS011;2772;42.700;23.304;2022-11-30T03:27:01;3.60;;;3.30;;
5499;SDS011;2772;42.700;23.304;2022-11-30T03:29:28;3.60;;;3.40;;
5499;SDS011;2772;42.700;23.304;2022-11-30T03:31:55;3.70;;;3.50;;
5499;SDS011;2772;42.700;23.304;2022-11-30T03:34:23;7.33;;;3.50;;
5499;SDS011;2772;42.700;23.304;2022-11-30T03:36:51;3.87;;;3.67;;
5499;SDS011;2772;42.700;23.304;2022-11-30T03:39:18;4.30;;;4.00;;
5499;SDS011;2772;42.700;23.304;2022-11-30T03:41:45;5.90;;;3.50;;
5499;SDS011;2772;42.700;23.304;2022-11-30T03:44:12;5.07;;;3.80;;
5499;SDS011;2772;42.700;23.304;2022-11-30T03:46:38;6.13;;;3.77;;
5499;SDS011;2772;42.700;23.304;2022-11-30T03:49:05;3.90;;;3.60;;
5499;SDS011;2772;42.700;23.304;2022-11-30T03:51:33;3.97;;;3.67;;
5499;SDS011;2772;42.700;23.304;2022-11-30T03:54:00;3.80;;;3.60;;
5499;SDS011;2772;42.700;23.304;2022-11-30T03:56:28;3.90;;;3.70;;
5499;SDS011;2772;42.700;23.304;2022-11-30T03:58:55;4.00;;;3.70;;
5499;SDS011;2772;42.700;23.304;2022-11-30T04:01:22;3.73;;;3.43;;
5499;SDS011;2772;42.700;23.304;2022-11-30T04:03:49;3.80;;;3.60;;
5499;SDS011;2772;42.700;23.304;2022-11-30T04:06:17;3.53;;;3.33;;
5499;SDS011;2772;42.700;23.304;2022-11-30T04:08:45;3.40;;;3.10;;
5499;SDS011;2772;42.700;23.304;2022-11-30T04:11:12;4.70;;;4.10;;
5499;SDS011;2772;42.700;23.304;2022-11-30T04:13:39;2.90;;;2.80;;
5499;SDS011;2772;42.700;23.304;2022-11-30T04:16:07;4.30;;;4.00;;
5499;SDS011;2772;42.700;23.304;2022-11-30T04:18:34;3.70;;;3.50;;
5499;SDS011;2772;42.700;23.304;2022-11-30T04:21:02;3.80;;;3.60;;
5499;SDS011;2772;42.700;23.304;2022-11-30T04:23:30;5.60;;;3.90;;
5499;SDS011;2772;42.700;23.304;2022-11-30T04:26:00;3.57;;;3.37;;
5499;SDS011;2772;42.700;23.304;2022-11-30T04:28:28;3.90;;;3.60;;
5499;SDS011;2772;42.700;23.304;2022-11-30T04:30:54;3.47;;;3.27;;
5499;SDS011;2772;42.700;23.304;2022-11-30T04:33:21;3.47;;;3.27;;
5499;SDS011;2772;42.700;23.304;2022-11-30T04:35:49;2.70;;;2.60;;
5499;SDS011;2772;42.700;23.304;2022-11-30T04:38:18;2.50;;;2.40;;
5499;SDS011;2772;42.700;23.304;2022-11-30T04:40:44;3.00;;;2.80;;
5499;SDS011;2772;42.700;23.304;2022-11-30T04:43:12;3.00;;;2.70;;
5499;SDS011;2772;42.700;23.304;2022-11-30T04:45:39;3.20;;;3.10;;
5499;SDS011;2772;42.700;23.304;2022-11-30T04:48:08;3.83;;;3.53;;
5499;SDS011;2772;42.700;23.304;2022-11-30T04:50:35;3.77;;;3.47;;
5499;SDS011;2772;42.700;23.304;2022-11-30T04:53:03;3.90;;;3.60;;
5499;SDS011;2772;42.700;23.304;2022-11-30T04:55:30;3.43;;;3.23;;
5499;SDS011;2772;42.700;23.304;2022-11-30T04:57:57;4.00;;;3.40;;
5499;SDS011;2772;42.700;23.304;2022-11-30T05:00:25;4.77;;;4.37;;
5499;SDS011;2772;42.700;23.304;2022-11-30T05:02:54;4.67;;;4.27;;
5499;SDS011;2772;42.700;23.304;2022-11-30T05:05:21;3.63;;;3.43;;
5499;SDS011;2772;42.700;23.304;2022-11-30T05:07:53;10.47;;;7.60;;
5499;SDS011;2772;42.700;23.304;2022-11-30T05:10:21;4.33;;;3.87;;
5499;SDS011;2772;42.700;23.304;2022-11-30T05:12:47;3.77;;;3.57;;
5499;SDS011;2772;42.700;23.304;2022-11-30T05:15:15;3.47;;;3.37;;
5499;SDS011;2772;42.700;23.304;2022-11-30T05:17:44;6.03;;;3.60;;
5499;SDS011;2772;42.700;23.304;2022-11-30T05:20:10;3.80;;;3.50;;
5499;SDS011;2772;42.700;23.304;2022-11-30T05:22:37;4.37;;;3.97;;
5499;SDS011;2772;42.700;23.304;2022-11-30T05:25:04;4.50;;;4.10;;
5499;SDS011;2772;42.700;23.304;2022-11-30T05:27:32;6.40;;;4.00;;
5499;SDS011;2772;42.700;23.304;2022-11-30T05:29:59;4.07;;;3.80;;
5499;SDS011;2772;42.700;23.304;2022-11-30T05:32:26;3.87;;;3.57;;
5499;SDS011;2772;42.700;23.304;2022-11-30T05:34:54;4.33;;;4.03;;
5499;SDS011;2772;42.700;23.304;2022-11-30T05:37:21;4.07;;;3.87;;
5499;SDS011;2772;42.700;23.304;2022-11-30T05:39:47;6.03;;;4.33;;
5499;SDS011;2772;42.700;23.304;2022-11-30T05:42:14;5.20;;;4.40;;
5499;SDS011;2772;42.700;23.304;2022-11-30T05:44:41;4.80;;;4.00;;
5499;SDS011;2772;42.700;23.304;2022-11-30T05:47:08;3.63;;;3.50;;
5499;SDS011;2772;42.700;23.304;2022-11-30T05:49:35;3.93;;;3.57;;
5499;SDS011;2772;42.700;23.304;2022-11-30T05:52:03;6.13;;;4.40;;
5499;SDS011;2772;42.700;23.304;2022-11-30T05:54:31;5.57;;;4.90;;
5499;SDS011;2772;42.700;23.304;2022-11-30T05:56:58;4.17;;;3.87;;
5499;SDS011;2772;42.700;23.304;2022-11-30T05:59:25;4.33;;;4.03;;
5499;SDS011;2772;42.700;23.304;2022-11-30T06:01:52;4.70;;;4.40;;
5499;SDS011;2772;42.700;23.304;2022-11-30T06:04:19;6.30;;;4.50;;
5499;SDS011;2772;42.700;23.304;2022-11-30T06:06:46;7.73;;;5.20;;
5499;SDS011;2772;42.700;23.304;2022-11-30T06:09:14;7.13;;;4.50;;
5499;SDS011;2772;42.700;23.304;2022-11-30T06:11:41;4.50;;;4.10;;
5499;SDS011;2772;42.700;23.304;2022-11-30T06:14:08;5.23;;;4.80;;
5499;SDS011;2772;42.700;23.304;2022-11-30T06:16:36;6.90;;;5.97;;
5499;SDS011;2772;42.700;23.304;2022-11-30T06:19:03;7.13;;;5.03;;
5499;SDS011;2772;42.700;23.304;2022-11-30T06:21:30;4.53;;;4.13;;
5499;SDS011;2772;42.700;23.304;2022-11-30T06:23:57;3.90;;;3.60;;
5499;SDS011;2772;42.700;23.304;2022-11-30T06:26:25;4.30;;;3.13;;
5499;SDS011;2772;42.700;23.304;2022-11-30T06:28:52;3.60;;;3.33;;
5499;SDS011;2772;42.700;23.304;2022-11-30T06:31:18;3.50;;;3.30;;
5499;SDS011;2772;42.700;23.304;2022-11-30T06:33:45;5.13;;;4.33;;
5499;SDS011;2772;42.700;23.304;2022-11-30T06:36:12;3.17;;;2.97;;
5499;SDS011;2772;42.700;23.304;2022-11-30T06:38:39;2.73;;;2.63;;
5499;SDS011;2772;42.700;23.304;2022-11-30T06:41:06;3.70;;;3.30;;
5499;SDS011;2772;42.700;23.304;2022-11-30T06:43:38;4.63;;;4.07;;
5499;SDS011;2772;42.700;23.304;2022-11-30T06:46:05;3.97;;;3.67;;
5499;SDS011;2772;42.700;23.304;2022-11-30T06:48:33;3.57;;;3.33;;
5499;SDS011;2772;42.700;23.304;2022-11-30T06:51:00;3.67;;;3.37;;
5499;SDS011;2772;42.700;23.304;2022-11-30T06:53:29;3.43;;;3.13;;
5499;SDS011;2772;42.700;23.304;2022-11-30T06:55:56;3.40;;;3.10;;
5499;SDS011;2772;42.700;23.304;2022-11-30T06:58:23;3.90;;;3.60;;
5499;SDS011;2772;42.700;23.304;2022-11-30T07:00:51;4.80;;;3.20;;
5499;SDS011;2772;42.700;23.304;2022-11-30T07:03:18;3.50;;;3.30;;
5499;SDS011;2772;42.700;23.304;2022-11-30T07:05:45;4.10;;;3.33;;
5499;SDS011;2772;42.700;23.304;2022-11-30T07:08:12;7.60;;;4.97;;
5499;SDS011;2772;42.700;23.304;2022-11-30T07:10:40;12.17;;;8.40;;
5499;SDS011;2772;42.700;23.304;2022-11-30T07:13:12;8.80;;;5.60;;
5499;SDS011;2772;42.700;23.304;2022-11-30T07:15:40;7.37;;;5.77;;
5499;SDS011;2772;42.700;23.304;2022-11-30T07:18:08;7.67;;;5.60;;
5499;SDS011;2772;42.700;23.304;2022-11-30T07:20:36;9.70;;;5.40;;
5499;SDS011;2772;42.700;23.304;2022-11-30T07:23:03;8.90;;;5.63;;
5499;SDS011;2772;42.700;23.304;2022-11-30T07:25:44;7.43;;;4.93;;
5499;SDS011;2772;42.700;23.304;2022-11-30T07:28:28;8.67;;;5.20;;
5499;SDS011;2772;42.700;23.304;2022-11-30T07:30:55;4.77;;;4.20;;
5499;SDS011;2772;42.700;23.304;2022-11-30T07:33:23;6.63;;;5.30;;
5499;SDS011;2772;42.700;23.304;2022-11-30T07:35:51;6.53;;;4.63;;
5499;SDS011;2772;42.700;23.304;2022-11-30T07:38:18;5.33;;;4.83;;
5499;SDS011;2772;42.700;23.304;2022-11-30T07:40:45;7.77;;;5.00;;
5499;SDS011;2772;42.700;23.304;2022-11-30T07:43:12;15.70;;;7.20;;
5499;SDS011;2772;42.700;23.304;2022-11-30T07:45:39;5.07;;;4.10;;
5499;SDS011;2772;42.700;23.304;2022-11-30T07:48:06;6.00;;;4.80;;
5499;SDS011;2772;42.700;23.304;2022-11-30T07:50:35;8.23;;;4.63;;
5499;SDS011;2772;42.700;23.304;2022-11-30T07:53:02;5.97;;;4.27;;
5499;SDS011;2772;42.700;23.304;2022-11-30T07:55:28;6.67;;;4.53;;
5499;SDS011;2772;42.700;23.304;2022-11-30T07:57:57;5.77;;;4.40;;
5499;SDS011;2772;42.700;23.304;2022-11-30T08:00:24;5.57;;;4.93;;
5499;SDS011;2772;42.700;23.304;2022-11-30T08:02:51;7.00;;;4.60;;
5499;SDS011;2772;42.700;23.304;2022-11-30T08:05:17;9.83;;;5.10;;
5499;SDS011;2772;42.700;23.304;2022-11-30T08:07:45;5.90;;;4.90;;
5499;SDS011;2772;42.700;23.304;2022-11-30T08:10:16;7.30;;;5.57;;
5499;SDS011;2772;42.700;23.304;2022-11-30T08:12:43;6.87;;;5.60;;
5499;SDS011;2772;42.700;23.304;2022-11-30T08:15:10;9.17;;;6.13;;
5499;SDS011;2772;42.700;23.304;2022-11-30T08:17:36;5.70;;;4.50;;
5499;SDS011;2772;42.700;23.304;2022-11-30T08:20:04;8.90;;;6.20;;
5499;SDS011;2772;42.700;23.304;2022-11-30T08:22:32;4.37;;;3.67;;
5499;SDS011;2772;42.700;23.304;2022-11-30T08:25:00;4.80;;;4.40;;
5499;SDS011;2772;42.700;23.304;2022-11-30T08:27:27;5.20;;;4.80;;
5499;SDS011;2772;42.700;23.304;2022-11-30T08:29:54;10.40;;;6.43;;
5499;SDS011;2772;42.700;23.304;2022-11-30T08:32:20;9.00;;;6.27;;
5499;SDS011;2772;42.700;23.304;2022-11-30T08:34:47;3.90;;;3.70;;
5499;SDS011;2772;42.700;23.304;2022-11-30T08:37:14;5.43;;;4.50;;
5499;SDS011;2772;42.700;23.304;2022-11-30T08:39:40;4.83;;;4.30;;
5499;SDS011;2772;42.700;23.304;2022-11-30T08:42:08;5.73;;;4.10;;
5499;SDS011;2772;42.700;23.304;2022-11-30T08:44:36;5.40;;;4.90;;
5499;SDS011;2772;42.700;23.304;2022-11-30T08:47:03;5.53;;;4.50;;
5499;SDS011;2772;42.700;23.304;2022-11-30T08:49:30;7.33;;;4.90;;
5499;SDS011;2772;42.700;23.304;2022-11-30T08:51:56;4.30;;;3.90;;
5499;SDS011;2772;42.700;23.304;2022-11-30T08:54:23;6.40;;;5.00;;
5499;SDS011;2772;42.700;23.304;2022-11-30T08:56:51;7.70;;;4.13;;
5499;SDS011;2772;42.700;23.304;2022-11-30T08:59:19;5.10;;;4.40;;
5499;SDS011;2772;42.700;23.304;2022-11-30T09:01:46;8.23;;;5.40;;
5499;SDS011;2772;42.700;23.304;2022-11-30T09:04:13;4.37;;;4.00;;
5499;SDS011;2772;42.700;23.304;2022-11-30T09:06:39;6.03;;;4.90;;
5499;SDS011;2772;42.700;23.304;2022-11-30T09:09:07;6.70;;;4.40;;
5499;SDS011;2772;42.700;23.304;2022-11-30T09:11:33;14.00;;;5.40;;
5499;SDS011;2772;42.700;23.304;2022-11-30T09:14:01;13.63;;;5.90;;
5499;SDS011;2772;42.700;23.304;2022-11-30T09:16:30;8.90;;;5.93;;
5499;SDS011;2772;42.700;23.304;2022-11-30T09:18:57;11.53;;;5.07;;
5499;SDS011;2772;42.700;23.304;2022-11-30T09:21:24;7.80;;;4.90;;
5499;SDS011;2772;42.700;23.304;2022-11-30T09:23:51;5.40;;;4.90;;
5499;SDS011;2772;42.700;23.304;2022-11-30T09:26:20;5.40;;;3.57;;
5499;SDS011;2772;42.700;23.304;2022-11-30T09:28:49;10.43;;;6.00;;
5499;SDS011;2772;42.700;23.304;2022-11-30T09:31:17;4.90;;;4.33;;
5499;SDS011;2772;42.700;23.304;2022-11-30T09:33:47;9.20;;;5.83;;
5499;SDS011;2772;42.700;23.304;2022-11-30T09:36:15;9.97;;;5.00;;
5499;SDS011;2772;42.700;23.304;2022-11-30T09:38:43;5.60;;;4.40;;
5499;SDS011;2772;42.700;23.304;2022-11-30T09:41:17;4.33;;;3.80;;
5499;SDS011;2772;42.700;23.304;2022-11-30T09:44:02;6.60;;;4.73;;
5499;SDS011;2772;42.700;23.304;2022-11-30T09:46:40;3.80;;;3.47;;
5499;SDS011;2772;42.700;23.304;2022-11-30T09:49:11;4.90;;;4.37;;
5499;SDS011;2772;42.700;23.304;2022-11-30T09:51:44;4.33;;;4.00;;
5499;SDS011;2772;42.700;23.304;2022-11-30T09:54:12;5.93;;;5.03;;
5499;SDS011;2772;42.700;23.304;2022-11-30T09:56:42;14.90;;;4.90;;
5499;SDS011;2772;42.700;23.304;2022-11-30T09:59:13;11.17;;;8.70;;
5499;SDS011;2772;42.700;23.304;2022-11-30T10:01:45;17.17;;;8.10;;
5499;SDS011;2772;42.700;23.304;2022-11-30T10:04:21;11.47;;;7.47;;
5499;SDS011;2772;42.700;23.304;2022-11-30T10:06:52;18.10;;;8.90;;
5499;SDS011;2772;42.700;23.304;2022-11-30T10:09:30;19.13;;;8.47;;
5499;SDS011;2772;42.700;23.304;2022-11-30T10:12:04;10.93;;;8.10;;
5499;SDS011;2772;42.700;23.304;2022-11-30T10:14:41;17.27;;;6.87;;
5499;SDS011;2772;42.700;23.304;2022-11-30T10:17:21;16.90;;;8.47;;
5499;SDS011;2772;42.700;23.304;2022-11-30T10:20:01;6.50;;;4.20;;
5499;SDS011;2772;42.700;23.304;2022-11-30T10:22:42;4.53;;;4.00;;
5499;SDS011;2772;42.700;23.304;2022-11-30T10:25:21;5.57;;;2.63;;
5499;SDS011;2772;42.700;23.304;2022-11-30T10:27:50;9.57;;;2.83;;
5499;SDS011;2772;42.700;23.304;2022-11-30T10:30:19;3.07;;;2.83;;
5499;SDS011;2772;42.700;23.304;2022-11-30T10:32:48;6.67;;;3.20;;
5499;SDS011;2772;42.700;23.304;2022-11-30T10:35:22;4.07;;;2.80;;
5499;SDS011;2772;42.700;23.304;2022-11-30T10:37:59;5.80;;;4.50;;
5499;SDS011;2772;42.700;23.304;2022-11-30T10:40:31;6.33;;;4.50;;
5499;SDS011;2772;42.700;23.304;2022-11-30T10:43:05;4.27;;;3.97;;
5499;SDS011;2772;42.700;23.304;2022-11-30T10:45:43;7.77;;;4.87;;
5499;SDS011;2772;42.700;23.304;2022-11-30T10:48:13;5.57;;;4.07;;
5499;SDS011;2772;42.700;23.304;2022-11-30T10:50:46;5.20;;;3.60;;
5499;SDS011;2772;42.700;23.304;2022-11-30T10:53:13;4.50;;;3.87;;
5499;SDS011;2772;42.700;23.304;2022-11-30T10:55:41;9.90;;;5.43;;
5499;SDS011;2772;42.700;23.304;2022-11-30T10:58:11;3.73;;;3.40;;
5499;SDS011;2772;42.700;23.304;2022-11-30T11:00:47;5.00;;;3.33;;
5499;SDS011;2772;42.700;23.304;2022-11-30T11:03:23;9.70;;;4.83;;
5499;SDS011;2772;42.700;23.304;2022-11-30T11:06:06;12.20;;;5.57;;
5499;SDS011;2772;42.700;23.304;2022-11-30T11:08:40;10.10;;;7.30;;
5499;SDS011;2772;42.700;23.304;2022-11-30T11:14:06;4.33;;;4.00;;
5499;SDS011;2772;42.700;23.304;2022-11-30T11:16:50;4.50;;;3.87;;
5499;SDS011;2772;42.700;23.304;2022-11-30T11:19:23;6.80;;;4.43;;
5499;SDS011;2772;42.700;23.304;2022-11-30T11:21:53;4.07;;;3.70;;
5499;SDS011;2772;42.700;23.304;2022-11-30T11:24:19;5.30;;;4.70;;
5499;SDS011;2772;42.700;23.304;2022-11-30T11:26:52;8.70;;;4.40;;
5499;SDS011;2772;42.700;23.304;2022-11-30T11:29:21;6.80;;;4.60;;
5499;SDS011;2772;42.700;23.304;2022-11-30T11:32:04;13.03;;;4.00;;
5499;SDS011;2772;42.700;23.304;2022-11-30T11:34:34;4.80;;;4.40;;
5499;SDS011;2772;42.700;23.304;2022-11-30T11:37:09;6.43;;;4.20;;
5499;SDS011;2772;42.700;23.304;2022-11-30T11:39:42;5.63;;;4.60;;
5499;SDS011;2772;42.700;23.304;2022-11-30T11:42:19;10.17;;;5.30;;
5499;SDS011;2772;42.700;23.304;2022-11-30T11:44:48;5.23;;;4.50;;
5499;SDS011;2772;42.700;23.304;2022-11-30T11:47:20;8.43;;;4.90;;
5499;SDS011;2772;42.700;23.304;2022-11-30T11:49:50;11.97;;;5.10;;
5499;SDS011;2772;42.700;23.304;2022-11-30T11:52:30;4.73;;;4.17;;
5499;SDS011;2772;42.700;23.304;2022-11-30T11:54:57;11.77;;;5.43;;
5499;SDS011;2772;42.700;23.304;2022-11-30T11:57:32;8.27;;;4.90;;
5499;SDS011;2772;42.700;23.304;2022-11-30T12:00:04;5.80;;;4.10;;
5499;SDS011;2772;42.700;23.304;2022-11-30T12:02:33;4.10;;;3.80;;
5499;SDS011;2772;42.700;23.304;2022-11-30T12:05:08;6.73;;;3.30;;
5499;SDS011;2772;42.700;23.304;2022-11-30T12:07:43;4.00;;;3.70;;
5499;SDS011;2772;42.700;23.304;2022-11-30T12:10:20;5.87;;;3.77;;
5499;SDS011;2772;42.700;23.304;2022-11-30T12:12:52;4.70;;;3.30;;
5499;SDS011;2772;42.700;23.304;2022-11-30T12:15:19;2.90;;;2.70;;
5499;SDS011;2772;42.700;23.304;2022-11-30T12:17:54;15.73;;;3.50;;
5499;SDS011;2772;42.700;23.304;2022-11-30T12:20:30;11.13;;;4.10;;
5499;SDS011;2772;42.700;23.304;2022-11-30T12:23:17;10.30;;;4.00;;
5499;SDS011;2772;42.700;23.304;2022-11-30T12:25:57;6.13;;;4.20;;
5499;SDS011;2772;42.700;23.304;2022-11-30T12:28:35;5.97;;;3.70;;
5499;SDS011;2772;42.700;23.304;2022-11-30T12:31:10;5.67;;;3.40;;
5499;SDS011;2772;42.700;23.304;2022-11-30T12:33:49;13.50;;;3.80;;
5499;SDS011;2772;42.700;23.304;2022-11-30T12:36:30;4.70;;;4.20;;
5499;SDS011;2772;42.700;23.304;2022-11-30T12:39:12;6.77;;;4.73;;
5499;SDS011;2772;42.700;23.304;2022-11-30T12:41:46;7.13;;;5.67;;
5499;SDS011;2772;42.700;23.304;2022-11-30T12:44:20;11.00;;;4.73;;
5499;SDS011;2772;42.700;23.304;2022-11-30T12:46:57;5.87;;;3.80;;
5499;SDS011;2772;42.700;23.304;2022-11-30T12:49:34;9.00;;;3.73;;
5499;SDS011;2772;42.700;23.304;2022-11-30T12:52:16;4.90;;;4.20;;
5499;SDS011;2772;42.700;23.304;2022-11-30T12:54:53;4.93;;;3.93;;
5499;SDS011;2772;42.700;23.304;2022-11-30T12:57:30;18.90;;;3.53;;
5499;SDS011;2772;42.700;23.304;2022-11-30T13:00:03;5.43;;;2.87;;
5499;SDS011;2772;42.700;23.304;2022-11-30T13:02:44;4.47;;;2.47;;
5499;SDS011;2772;42.700;23.304;2022-11-30T13:05:31;4.00;;;2.33;;
5499;SDS011;2772;42.700;23.304;2022-11-30T13:08:04;4.37;;;2.40;;
5499;SDS011;2772;42.700;23.304;2022-11-30T13:10:39;7.63;;;2.70;;
5499;SDS011;2772;42.700;23.304;2022-11-30T13:13:09;9.07;;;3.00;;
5499;SDS011;2772;42.700;23.304;2022-11-30T13:15:39;3.10;;;2.63;;
5499;SDS011;2772;42.700;23.304;2022-11-30T13:18:06;6.20;;;2.53;;
5499;SDS011;2772;42.700;23.304;2022-11-30T13:20:41;3.00;;;2.10;;
5499;SDS011;2772;42.700;23.304;2022-11-30T13:23:15;2.50;;;2.30;;
5499;SDS011;2772;42.700;23.304;2022-11-30T13:25:58;2.50;;;2.10;;
5499;SDS011;2772;42.700;23.304;2022-11-30T13:28:32;3.43;;;1.80;;
5499;SDS011;2772;42.700;23.304;2022-11-30T13:31:13;2.80;;;2.37;;
5499;SDS011;2772;42.700;23.304;2022-11-30T13:33:45;3.47;;;2.13;;
5499;SDS011;2772;42.700;23.304;2022-11-30T13:44:59;9.60;;;2.47;;
5499;SDS011;2772;42.700;23.304;2022-11-30T13:47:46;3.77;;;2.70;;
5499;SDS011;2772;42.700;23.304;2022-11-30T13:50:18;6.37;;;2.47;;
5499;SDS011;2772;42.700;23.304;2022-11-30T13:53:05;2.40;;;1.90;;
5499;SDS011;2772;42.700;23.304;2022-11-30T14:10:38;4.90;;;2.70;;
5499;SDS011;2772;42.700;23.304;2022-11-30T14:15:53;4.00;;;3.00;;
5499;SDS011;2772;42.700;23.304;2022-11-30T14:18:29;5.77;;;2.50;;
5499;SDS011;2772;42.700;23.304;2022-11-30T14:21:11;7.30;;;2.60;;
5499;SDS011;2772;42.700;23.304;2022-11-30T14:23:45;3.30;;;2.50;;
5499;SDS011;2772;42.700;23.304;2022-11-30T14:26:16;3.23;;;2.40;;
5499;SDS011;2772;42.700;23.304;2022-11-30T14:28:50;4.90;;;2.80;;
5499;SDS011;2772;42.700;23.304;2022-11-30T14:31:23;3.10;;;2.70;;
5499;SDS011;2772;42.700;23.304;2022-11-30T14:33:53;6.50;;;3.10;;
5499;SDS011;2772;42.700;23.304;2022-11-30T14:36:24;9.93;;;3.93;;
5499;SDS011;2772;42.700;23.304;2022-11-30T14:38:58;12.57;;;4.30;;
5499;SDS011;2772;42.700;23.304;2022-11-30T14:41:27;5.40;;;4.17;;
5499;SDS011;2772;42.700;23.304;2022-11-30T14:44:02;5.80;;;3.87;;
5499;SDS011;2772;42.700;23.304;2022-11-30T14:46:31;6.50;;;3.47;;
5499;SDS011;2772;42.700;23.304;2022-11-30T14:49:03;10.07;;;5.83;;
5499;SDS011;2772;42.700;23.304;2022-11-30T14:51:32;7.07;;;5.00;;
5499;SDS011;2772;42.700;23.304;2022-11-30T14:54:00;12.50;;;5.80;;
5499;SDS011;2772;42.700;23.304;2022-11-30T14:56:35;7.13;;;4.10;;
5499;SDS011;2772;42.700;23.304;2022-11-30T14:59:08;8.03;;;4.60;;
5499;SDS011;2772;42.700;23.304;2022-11-30T15:01:42;6.77;;;5.20;;
5499;SDS011;2772;42.700;23.304;2022-11-30T15:04:09;18.30;;;6.30;;
5499;SDS011;2772;42.700;23.304;2022-11-30T15:06:41;10.60;;;4.77;;
5499;SDS011;2772;42.700;23.304;2022-11-30T15:09:12;6.60;;;4.33;;
5499;SDS011;2772;42.700;23.304;2022-11-30T15:11:42;7.13;;;4.07;;
5499;SDS011;2772;42.700;23.304;2022-11-30T15:14:12;5.50;;;4.23;;
5499;SDS011;2772;42.700;23.304;2022-11-30T15:16:45;6.87;;;4.80;;
5499;SDS011;2772;42.700;23.304;2022-11-30T15:19:20;15.20;;;6.53;;
5499;SDS011;2772;42.700;23.304;2022-11-30T15:21:50;25.50;;;6.60;;
5499;SDS011;2772;42.700;23.304;2022-11-30T15:24:17;11.13;;;6.63;;
5499;SDS011;2772;42.700;23.304;2022-11-30T15:26:47;5.73;;;4.60;;
5499;SDS011;2772;42.700;23.304;2022-11-30T15:29:20;10.30;;;5.77;;
5499;SDS011;2772;42.700;23.304;2022-11-30T15:31:51;18.80;;;5.40;;
5499;SDS011;2772;42.700;23.304;2022-11-30T15:34:20;7.87;;;5.37;;
5499;SDS011;2772;42.700;23.304;2022-11-30T15:36:53;7.90;;;5.10;;
5499;SDS011;2772;42.700;23.304;2022-11-30T15:39:21;8.03;;;5.63;;
5499;SDS011;2772;42.700;23.304;2022-11-30T15:41:51;10.03;;;5.73;;
5499;SDS011;2772;42.700;23.304;2022-11-30T15:44:23;8.27;;;5.37;;
5499;SDS011;2772;42.700;23.304;2022-11-30T15:46:56;12.27;;;6.27;;